Fort Walton Beach, Florida
Current Conditions -  °F | °C
As of 3:58 AM on Friday 21 Nov 2014 (Local Time) from KHRT Reporting Station
Clear Clear  
Wind Chill: 34°   Ceiling: Unl
Heat Index: 38°   Visibility: 10mi
Dew Point: 34°   Wind: 5mph
Humidity: 85%   Direction: 10°N
Pressure: 30.27"   Gusts: NA
Location:  30.4°N, 86.61°W
Report Text: KHRT 210958Z AUTO 01004KT 10SM CLR 03/01 A3027 RMK AO2 SLP252 T00320009 $
Loading
Personal Weather Stations






























Interactive Weather Map New forecast layout! Learn more

10-Day Weather Forecast

Advertisements
Track Severe Weather on mobile